createdAt,value
2023-04-19T00:01:45.216Z,8.20
2023-04-19T00:04:18.728Z,8.77
2023-04-19T00:06:52.431Z,9.45
2023-04-19T00:09:25.476Z,7.55
2023-04-19T00:12:00.797Z,8.05
2023-04-19T00:14:42.939Z,8.75
2023-04-19T00:17:15.830Z,8.00
2023-04-19T00:19:48.937Z,8.40
2023-04-19T00:22:23.455Z,7.32
2023-04-19T00:24:56.681Z,7.85
2023-04-19T00:27:29.318Z,8.57
2023-04-19T00:30:03.413Z,7.60
2023-04-19T00:32:37.902Z,6.85
2023-04-19T00:35:11.459Z,7.63
2023-04-19T00:37:45.031Z,7.85
2023-04-19T00:40:20.138Z,6.35
2023-04-19T00:42:52.935Z,7.50
2023-04-19T00:45:26.829Z,7.95
2023-04-19T00:47:59.964Z,9.43
2023-04-19T00:50:48.122Z,7.88
2023-04-19T00:53:21.077Z,7.60
2023-04-19T00:55:55.393Z,7.38
2023-04-19T00:58:30.610Z,7.78
2023-04-19T01:01:03.997Z,7.82
2023-04-19T01:03:37.990Z,7.15
2023-04-19T01:06:12.602Z,6.13
2023-04-19T01:08:48.689Z,6.95
2023-04-19T01:11:21.751Z,6.90
2023-04-19T01:13:55.627Z,7.25
2023-04-19T01:16:29.191Z,6.00
2023-04-19T01:19:01.975Z,7.38
2023-04-19T01:21:39.086Z,5.53
2023-04-19T01:24:15.890Z,6.22
2023-04-19T01:26:49.698Z,7.32
2023-04-19T01:29:22.657Z,7.30
2023-04-19T01:31:55.689Z,6.10
2023-04-19T01:34:28.326Z,6.88
2023-04-19T01:37:01.498Z,6.65
2023-04-19T01:39:35.180Z,6.65
2023-04-19T01:42:15.112Z,6.05
2023-04-19T01:44:47.794Z,6.80
2023-04-19T01:47:20.867Z,5.93
2023-04-19T01:49:53.567Z,7.22
2023-04-19T01:52:26.736Z,5.78
2023-04-19T01:54:59.921Z,6.43
2023-04-19T01:57:33.370Z,5.53
2023-04-19T02:00:10.375Z,6.80
2023-04-19T02:02:50.164Z,6.65
2023-04-19T02:05:23.569Z,8.02
2023-04-19T02:07:56.775Z,6.78
2023-04-19T02:10:29.758Z,7.47
2023-04-19T02:13:02.847Z,7.70
2023-04-19T02:15:37.336Z,8.80
2023-04-19T02:18:10.334Z,7.45
2023-04-19T02:20:42.989Z,7.50
2023-04-19T02:23:16.324Z,7.57
2023-04-19T02:25:49.010Z,8.60
2023-04-19T02:28:22.004Z,6.68
2023-04-19T02:30:55.184Z,9.38
2023-04-19T02:33:29.981Z,7.80
2023-04-19T02:36:04.418Z,6.75
2023-04-19T02:38:38.124Z,9.43
2023-04-19T02:41:12.071Z,9.13
2023-04-19T02:43:45.584Z,8.38
2023-04-19T02:46:27.299Z,7.05
2023-04-19T02:49:03.769Z,8.82
2023-04-19T02:51:37.511Z,10.15
2023-04-19T02:54:15.147Z,8.77
2023-04-19T02:56:50.056Z,8.23
2023-04-19T02:59:24.952Z,8.27
2023-04-19T03:01:58.508Z,8.48
2023-04-19T03:04:32.140Z,7.13
2023-04-19T03:07:05.039Z,8.88
2023-04-19T03:09:42.154Z,10.10
2023-04-19T03:12:15.066Z,8.45
2023-04-19T03:14:49.862Z,10.27
2023-04-19T03:17:23.483Z,9.60
2023-04-19T03:19:57.069Z,11.88
2023-04-19T03:22:30.399Z,9.25
2023-04-19T03:25:03.600Z,9.38
2023-04-19T03:27:37.241Z,10.30
2023-04-19T03:30:15.128Z,10.98
2023-04-19T03:32:50.235Z,9.25
2023-04-19T03:35:26.576Z,9.73
2023-04-19T03:38:02.268Z,10.50
2023-04-19T03:40:37.651Z,9.15
2023-04-19T03:43:11.398Z,11.32
2023-04-19T03:45:45.462Z,10.93
2023-04-19T03:48:18.513Z,9.95
2023-04-19T03:50:51.720Z,7.78
2023-04-19T03:53:25.453Z,7.47
2023-04-19T03:55:58.564Z,6.85
2023-04-19T03:58:31.310Z,7.10
2023-04-19T04:01:17.706Z,6.82
2023-04-19T04:03:51.248Z,8.27
2023-04-19T04:06:25.112Z,7.20
2023-04-19T04:08:57.792Z,6.75
2023-04-19T04:11:31.605Z,5.95
2023-04-19T04:14:04.706Z,5.32
2023-04-19T04:16:41.919Z,6.10
2023-04-19T04:19:15.138Z,6.03
2023-04-19T04:21:49.745Z,6.13
2023-04-19T04:24:23.196Z,6.13
2023-04-19T04:27:14.089Z,5.53
2023-04-19T04:29:48.013Z,5.72
2023-04-19T04:32:23.764Z,4.95
2023-04-19T04:35:02.420Z,5.85
2023-04-19T04:37:45.293Z,5.07
2023-04-19T04:40:18.248Z,5.03
2023-04-19T04:42:53.318Z,5.68
2023-04-19T04:45:26.574Z,5.28
2023-04-19T04:47:59.821Z,5.13
2023-04-19T04:50:32.797Z,5.95
2023-04-19T04:53:07.094Z,5.30
2023-04-19T04:55:42.694Z,5.88
2023-04-19T04:58:16.445Z,4.85
2023-04-19T05:01:04.368Z,6.30
2023-04-19T05:03:42.550Z,5.47
2023-04-19T05:06:19.920Z,5.95
2023-04-19T05:08:53.013Z,4.70
2023-04-19T05:11:33.714Z,5.88
2023-04-19T05:14:07.006Z,5.85
2023-04-19T05:16:40.352Z,7.00
2023-04-19T05:19:13.814Z,6.07
2023-04-19T05:21:52.415Z,7.13
2023-04-19T05:24:25.734Z,8.07
2023-04-19T05:26:59.144Z,8.95
2023-04-19T05:29:32.266Z,7.40
2023-04-19T05:32:05.277Z,7.38
2023-04-19T05:34:42.265Z,8.38
2023-04-19T05:37:18.124Z,7.82
2023-04-19T05:39:51.336Z,6.30
2023-04-19T05:42:24.787Z,7.43
2023-04-19T05:44:57.906Z,7.35
2023-04-19T05:47:31.262Z,7.40
2023-04-19T05:50:43.132Z,5.78
2023-04-19T05:53:36.114Z,7.50
2023-04-19T05:56:09.629Z,8.00
2023-04-19T05:58:42.251Z,6.93
2023-04-19T06:01:15.408Z,7.80
2023-04-19T06:03:48.424Z,5.57
2023-04-19T06:06:24.581Z,5.60
2023-04-19T06:08:57.719Z,4.65
2023-04-19T06:11:39.023Z,5.05
2023-04-19T06:14:20.044Z,4.65
2023-04-19T06:16:53.168Z,5.20
2023-04-19T06:19:26.157Z,5.05
2023-04-19T06:21:59.197Z,5.15
2023-04-19T06:24:32.833Z,5.45
2023-04-19T06:27:06.817Z,4.22
2023-04-19T06:29:39.463Z,4.63
2023-04-19T06:32:12.514Z,4.78
2023-04-19T06:34:45.086Z,5.45
2023-04-19T06:37:18.097Z,4.15
2023-04-19T06:39:50.748Z,3.35
2023-04-19T06:42:25.815Z,4.20
2023-04-19T06:44:58.479Z,4.32
2023-04-19T06:47:33.466Z,5.13
2023-04-19T06:50:07.879Z,4.07
2023-04-19T06:52:41.143Z,5.50
2023-04-19T06:55:13.773Z,5.55
2023-04-19T06:57:46.813Z,4.75
2023-04-19T07:00:19.669Z,4.80
2023-04-19T07:02:52.782Z,5.07
2023-04-19T07:05:25.507Z,4.65
2023-04-19T07:07:58.817Z,5.28
2023-04-19T07:10:31.737Z,4.70
2023-04-19T07:13:04.686Z,4.70
2023-04-19T07:15:37.621Z,3.88
2023-04-19T07:18:15.422Z,4.70
2023-04-19T07:20:49.824Z,4.28
2023-04-19T07:23:22.813Z,3.60
2023-04-19T07:25:55.712Z,4.70
2023-04-19T07:28:31.928Z,4.18
2023-04-19T07:31:04.763Z,4.15
2023-04-19T07:33:37.796Z,3.15
2023-04-19T07:36:10.559Z,4.22
2023-04-19T07:38:43.522Z,4.57
2023-04-19T07:41:16.182Z,4.40
2023-04-19T07:43:49.390Z,4.28
2023-04-19T07:46:22.030Z,3.13
2023-04-19T07:48:54.978Z,3.45
2023-04-19T07:51:27.980Z,4.32
2023-04-19T07:54:01.409Z,4.15
2023-04-19T07:56:34.176Z,2.80
2023-04-19T07:59:09.278Z,2.63
2023-04-19T08:01:46.103Z,3.10
2023-04-19T08:04:21.449Z,2.72
2023-04-19T08:06:54.437Z,2.72
2023-04-19T08:09:27.429Z,2.67
2023-04-19T08:12:00.954Z,3.47
2023-04-19T08:14:43.432Z,3.50
2023-04-19T08:19:54.100Z,3.70
2023-04-19T08:22:27.475Z,3.35
2023-04-19T08:25:00.424Z,2.63
2023-04-19T08:27:33.078Z,2.72
2023-04-19T08:30:08.238Z,3.65
2023-04-19T08:32:40.859Z,3.53
2023-04-19T08:35:14.196Z,3.13
2023-04-19T08:37:48.880Z,3.95
2023-04-19T08:40:21.928Z,3.13
2023-04-19T08:42:54.478Z,4.22
2023-04-19T08:45:28.928Z,2.92
2023-04-19T08:48:02.656Z,4.05
2023-04-19T08:50:48.437Z,4.18
2023-04-19T08:53:29.991Z,3.55
2023-04-19T08:58:57.114Z,4.75
2023-04-19T09:01:35.926Z,4.72
2023-04-19T09:06:45.075Z,4.93
2023-04-19T09:11:57.863Z,4.90
2023-04-19T09:14:30.486Z,5.28
2023-04-19T09:17:17.600Z,5.30
2023-04-19T09:19:50.893Z,4.65
2023-04-19T09:22:24.561Z,5.40
2023-04-19T09:27:34.089Z,5.05
2023-04-19T09:30:10.795Z,4.60
2023-04-19T09:32:49.441Z,5.40
2023-04-19T09:35:22.457Z,5.28
2023-04-19T09:40:37.316Z,6.47
2023-04-19T09:43:32.947Z,4.43
2023-04-19T09:46:03.127Z,4.35
2023-04-19T09:48:37.633Z,4.75
2023-04-19T09:51:14.401Z,5.00
2023-04-19T09:53:48.962Z,4.35
2023-04-19T09:56:23.346Z,5.15
2023-04-19T09:59:01.667Z,5.95
2023-04-19T10:02:05.090Z,5.38
2023-04-19T10:07:29.464Z,4.18
2023-04-19T10:10:18.774Z,4.20
2023-04-19T10:18:32.711Z,3.92
2023-04-19T10:21:07.976Z,4.72
2023-04-19T10:23:41.420Z,3.95
2023-04-19T10:26:14.457Z,5.88
2023-04-19T10:28:48.631Z,3.88
2023-04-19T10:31:24.566Z,4.82
2023-04-19T10:33:58.058Z,3.67
2023-04-19T10:36:31.528Z,4.00
2023-04-19T10:39:04.398Z,4.57
2023-04-19T10:41:56.096Z,5.53
2023-04-19T10:44:28.737Z,6.20
2023-04-19T10:47:01.794Z,4.82
2023-04-19T10:49:45.394Z,4.63
2023-04-19T10:52:30.234Z,6.22
2023-04-19T10:55:04.425Z,6.45
2023-04-19T10:57:56.343Z,5.10
2023-04-19T11:00:31.954Z,5.13
2023-04-19T11:03:23.557Z,4.80
2023-04-19T11:06:15.849Z,7.28
2023-04-19T11:08:48.879Z,5.82
2023-04-19T11:11:22.034Z,8.80
2023-04-19T11:13:58.525Z,7.68
2023-04-19T11:16:44.878Z,6.32
2023-04-19T11:19:19.865Z,5.72
2023-04-19T11:21:52.583Z,7.18
2023-04-19T11:24:25.693Z,5.97
2023-04-19T11:26:58.646Z,7.22
2023-04-19T11:29:31.624Z,6.15
2023-04-19T11:32:04.794Z,5.68
2023-04-19T11:34:38.537Z,5.15
2023-04-19T11:37:12.025Z,5.88
2023-04-19T11:39:45.921Z,5.57
2023-04-19T11:42:19.824Z,6.43
2023-04-19T11:44:53.348Z,5.30
2023-04-19T11:47:28.962Z,4.68
2023-04-19T11:50:20.933Z,5.50
2023-04-19T11:52:53.653Z,6.05
2023-04-19T11:55:26.908Z,5.70
2023-04-19T11:57:59.495Z,6.63
2023-04-19T12:00:32.389Z,5.68
2023-04-19T12:03:05.511Z,4.68
2023-04-19T12:05:39.081Z,4.63
2023-04-19T12:08:12.280Z,5.32
2023-04-19T12:10:58.037Z,4.75
2023-04-19T12:13:32.368Z,4.60
2023-04-19T12:16:06.278Z,5.22
2023-04-19T12:18:52.068Z,4.70
2023-04-19T12:21:26.789Z,5.70
2023-04-19T12:24:00.589Z,6.00
2023-04-19T12:26:33.889Z,5.45
2023-04-19T12:29:06.524Z,9.35
2023-04-19T12:31:39.498Z,9.23
2023-04-19T12:34:12.109Z,15.75
2023-04-19T12:36:45.077Z,26.08
2023-04-19T12:39:18.148Z,5.60
2023-04-19T12:41:51.575Z,4.65
2023-04-19T12:44:24.199Z,15.52
2023-04-19T12:46:58.045Z,12.38
2023-04-19T12:49:31.226Z,8.93
2023-04-19T12:52:04.145Z,5.03
2023-04-19T12:54:36.870Z,5.30
2023-04-19T12:57:09.818Z,4.82
2023-04-19T12:59:42.356Z,4.55
2023-04-19T13:02:15.349Z,4.05
2023-04-19T13:04:48.424Z,3.92
2023-04-19T13:07:21.647Z,5.65
2023-04-19T13:09:56.063Z,5.72
2023-04-19T13:12:29.816Z,4.13
2023-04-19T13:15:04.533Z,4.85
2023-04-19T13:17:38.576Z,4.95
2023-04-19T13:20:11.388Z,7.22
2023-04-19T13:22:44.330Z,5.07
2023-04-19T13:25:17.083Z,5.22
2023-04-19T13:27:50.411Z,10.10
2023-04-19T13:30:22.988Z,7.82
2023-04-19T13:32:56.055Z,4.97
2023-04-19T13:35:29.013Z,5.53
2023-04-19T13:38:02.244Z,4.93
2023-04-19T13:40:34.960Z,5.82
2023-04-19T13:43:07.892Z,5.18
2023-04-19T13:45:44.472Z,5.75
2023-04-19T13:48:17.768Z,5.32
2023-04-19T13:50:51.816Z,6.07
2023-04-19T13:53:25.901Z,5.10
2023-04-19T13:55:58.485Z,6.13
2023-04-19T13:58:31.497Z,5.47
2023-04-19T14:01:04.344Z,4.68
2023-04-19T14:03:37.598Z,4.72
2023-04-19T14:06:10.381Z,4.75
2023-04-19T14:08:43.346Z,5.93
2023-04-19T14:11:15.966Z,4.93
2023-04-19T14:13:48.937Z,6.55
2023-04-19T14:16:21.626Z,6.30
2023-04-19T14:18:54.653Z,5.93
2023-04-19T14:21:28.044Z,4.40
2023-04-19T14:24:01.003Z,4.20
2023-04-19T14:26:33.597Z,5.72
2023-04-19T14:29:07.032Z,4.15
2023-04-19T14:31:40.037Z,4.65
2023-04-19T14:34:13.074Z,6.55
2023-04-19T14:36:45.608Z,7.03
2023-04-19T14:39:18.742Z,4.07
2023-04-19T14:41:51.792Z,5.00
2023-04-19T14:44:24.698Z,3.75
2023-04-19T14:46:57.539Z,4.15
2023-04-19T14:49:30.453Z,4.38
2023-04-19T14:52:04.535Z,4.95
2023-04-19T14:54:37.427Z,4.93
2023-04-19T14:57:10.386Z,6.15
2023-04-19T14:59:43.840Z,6.03
2023-04-19T15:02:17.049Z,4.20
2023-04-19T15:04:50.412Z,5.53
2023-04-19T15:07:23.074Z,5.32
2023-04-19T15:09:56.132Z,4.45
2023-04-19T15:12:28.677Z,3.63
2023-04-19T15:15:01.666Z,4.82
2023-04-19T15:17:34.475Z,5.13
2023-04-19T15:20:08.050Z,5.00
2023-04-19T15:22:40.757Z,4.80
2023-04-19T15:25:13.806Z,8.02
2023-04-19T15:27:46.661Z,6.30
2023-04-19T15:30:19.853Z,5.20
2023-04-19T15:32:52.653Z,3.55
2023-04-19T15:35:25.876Z,5.10
2023-04-19T15:37:58.471Z,7.03
2023-04-19T15:40:32.280Z,5.93
2023-04-19T15:43:04.910Z,6.40
2023-04-19T15:45:37.797Z,10.55
2023-04-19T15:48:11.333Z,8.30
2023-04-19T15:50:44.440Z,7.20
2023-04-19T15:53:17.282Z,9.02
2023-04-19T15:55:50.342Z,8.10
2023-04-19T15:58:24.399Z,8.60
2023-04-19T16:00:57.366Z,6.03
2023-04-19T16:03:30.566Z,6.70
2023-04-19T16:06:03.778Z,6.13
2023-04-19T16:08:36.503Z,5.22
2023-04-19T16:11:09.522Z,4.97
2023-04-19T16:13:42.117Z,5.68
2023-04-19T16:16:15.172Z,5.50
2023-04-19T16:18:47.738Z,5.15
2023-04-19T16:21:20.853Z,4.28
2023-04-19T16:23:53.466Z,5.13
2023-04-19T16:26:26.599Z,5.78
2023-04-19T16:28:59.809Z,5.40
2023-04-19T16:31:32.869Z,5.38
2023-04-19T16:34:05.502Z,6.05
2023-04-19T16:36:38.847Z,6.32
2023-04-19T16:39:12.262Z,6.45
2023-04-19T16:41:45.234Z,5.55
2023-04-19T16:44:17.809Z,6.10
2023-04-19T16:46:51.469Z,6.57
2023-04-19T16:49:25.827Z,5.78
2023-04-19T16:51:58.716Z,4.85
2023-04-19T16:54:31.576Z,6.32
2023-04-19T16:57:04.520Z,5.45
2023-04-19T16:59:37.381Z,5.63
2023-04-19T17:02:11.637Z,6.57
2023-04-19T17:04:44.899Z,6.60
2023-04-19T17:07:18.055Z,5.95
2023-04-19T17:09:50.714Z,5.03
2023-04-19T17:12:23.749Z,6.40
2023-04-19T17:14:56.416Z,8.25
2023-04-19T17:17:29.401Z,6.53
2023-04-19T17:20:02.324Z,6.25
2023-04-19T17:22:35.315Z,6.47
2023-04-19T17:25:08.109Z,6.93
2023-04-19T17:27:41.170Z,7.07
2023-04-19T17:30:14.240Z,8.07
2023-04-19T17:32:47.355Z,7.05
2023-04-19T17:35:19.995Z,7.00
2023-04-19T17:37:53.001Z,6.53
2023-04-19T17:40:27.975Z,6.60
2023-04-19T17:43:02.450Z,6.78
2023-04-19T17:45:35.081Z,7.07
2023-04-19T17:48:08.099Z,6.78
2023-04-19T17:50:40.806Z,7.80
2023-04-19T17:53:14.013Z,7.03
2023-04-19T17:55:46.891Z,7.72
2023-04-19T17:58:19.887Z,8.32
2023-04-19T18:00:52.686Z,6.53
2023-04-19T18:03:25.862Z,6.65
2023-04-19T18:05:58.740Z,6.57
2023-04-19T18:08:32.199Z,7.72
2023-04-19T18:11:04.826Z,8.30
2023-04-19T18:13:37.769Z,9.10
2023-04-19T18:16:11.600Z,7.13
2023-04-19T18:18:44.587Z,6.80
2023-04-19T18:21:18.881Z,7.45
2023-04-19T18:23:54.859Z,23.05
2023-04-19T18:26:39.354Z,20.42
2023-04-19T18:29:16.377Z,10.18
2023-04-19T18:31:49.287Z,9.57
2023-04-19T18:34:22.271Z,9.20
2023-04-19T18:36:58.760Z,9.50
2023-04-19T18:39:31.849Z,7.60
2023-04-19T18:42:04.445Z,6.10
2023-04-19T18:44:53.075Z,8.68
2023-04-19T18:47:27.151Z,16.40
2023-04-19T18:50:05.292Z,7.72
2023-04-19T18:52:38.677Z,10.75
2023-04-19T18:55:12.609Z,6.60
2023-04-19T18:57:45.271Z,8.52
2023-04-19T19:00:19.252Z,6.97
2023-04-19T19:02:52.899Z,6.72
2023-04-19T19:05:26.525Z,6.22
2023-04-19T19:07:59.497Z,7.57
2023-04-19T19:11:06.127Z,7.85
2023-04-19T19:13:25.222Z,8.52
2023-04-19T19:15:58.578Z,6.97
2023-04-19T19:18:31.959Z,8.60
2023-04-19T19:21:06.377Z,8.30
2023-04-19T19:23:42.502Z,6.45
2023-04-19T19:26:15.901Z,7.53
2023-04-19T19:28:48.695Z,7.32
2023-04-19T19:31:21.967Z,7.95
2023-04-19T19:34:09.525Z,12.77
2023-04-19T19:36:48.118Z,7.22
2023-04-19T19:39:21.716Z,8.32
2023-04-19T19:44:30.259Z,8.80
2023-04-19T19:47:09.378Z,7.25
2023-04-19T19:52:21.358Z,8.55
2023-04-19T19:54:54.133Z,9.18
2023-04-19T20:00:22.863Z,9.00
2023-04-19T20:02:56.995Z,10.23
2023-04-19T20:05:30.708Z,7.90
2023-04-19T20:08:08.496Z,9.13
2023-04-19T20:10:43.038Z,8.88
2023-04-19T20:13:16.136Z,8.65
2023-04-19T20:15:48.813Z,10.18
2023-04-19T20:18:21.886Z,8.18
2023-04-19T20:20:54.480Z,8.90
2023-04-19T20:23:27.519Z,8.40
2023-04-19T20:26:01.582Z,7.45
2023-04-19T20:28:35.642Z,6.63
2023-04-19T20:31:08.524Z,7.80
2023-04-19T20:33:41.692Z,8.88
2023-04-19T20:36:14.411Z,7.40
2023-04-19T20:38:47.375Z,5.90
2023-04-19T20:41:22.502Z,7.30
2023-04-19T20:43:57.479Z,6.45
2023-04-19T20:46:30.321Z,6.32
2023-04-19T20:49:03.365Z,6.15
2023-04-19T20:51:36.028Z,7.10
2023-04-19T20:54:09.330Z,7.65
2023-04-19T20:56:41.922Z,6.45
2023-04-19T20:59:15.192Z,6.40
2023-04-19T21:01:48.105Z,5.95
2023-04-19T21:04:21.307Z,6.13
2023-04-19T21:06:54.104Z,5.07
2023-04-19T21:09:27.168Z,6.78
2023-04-19T21:11:59.884Z,7.03
2023-04-19T21:14:34.088Z,7.00
2023-04-19T21:17:06.726Z,6.55
2023-04-19T21:19:39.881Z,7.38
2023-04-19T21:22:12.451Z,7.60
2023-04-19T21:24:45.410Z,7.03
2023-04-19T21:27:18.104Z,6.63
2023-04-19T21:29:51.169Z,5.68
2023-04-19T21:32:24.006Z,7.20
2023-04-19T21:34:57.123Z,6.68
2023-04-19T21:37:29.911Z,6.22
2023-04-19T21:40:02.897Z,6.60
2023-04-19T21:42:36.379Z,7.40
2023-04-19T21:45:09.492Z,5.97
2023-04-19T21:47:42.196Z,7.25
2023-04-19T21:50:15.233Z,6.13
2023-04-19T21:52:47.824Z,5.63
2023-04-19T21:55:20.865Z,6.32
2023-04-19T21:57:53.431Z,6.68
2023-04-19T22:00:26.486Z,6.25
2023-04-19T22:02:59.215Z,6.18
2023-04-19T22:05:32.248Z,7.10
2023-04-19T22:08:08.323Z,6.82
2023-04-19T22:10:41.441Z,6.45
2023-04-19T22:13:14.427Z,6.93
2023-04-19T22:15:47.430Z,7.70
2023-04-19T22:18:19.958Z,7.40
2023-04-19T22:20:53.690Z,6.88
2023-04-19T22:23:26.349Z,7.50
2023-04-19T22:26:00.578Z,6.05
2023-04-19T22:28:34.372Z,5.60
2023-04-19T22:31:07.567Z,6.28
2023-04-19T22:33:40.121Z,7.13
2023-04-19T22:36:13.193Z,7.32
2023-04-19T22:38:45.808Z,6.70
2023-04-19T22:41:18.723Z,6.38
2023-04-19T22:43:51.271Z,6.68
2023-04-19T22:46:24.449Z,7.88
2023-04-19T22:48:58.066Z,7.07
2023-04-19T22:51:31.066Z,6.47
2023-04-19T22:54:04.049Z,7.40
2023-04-19T22:56:36.996Z,7.07
2023-04-19T22:59:09.511Z,8.05
2023-04-19T23:01:42.711Z,7.80
2023-04-19T23:04:15.493Z,7.40
2023-04-19T23:06:49.182Z,8.23
2023-04-19T23:09:22.238Z,8.90
2023-04-19T23:11:55.460Z,7.57
2023-04-19T23:14:29.590Z,7.47
2023-04-19T23:17:03.375Z,7.22
2023-04-19T23:19:37.094Z,7.55
2023-04-19T23:22:10.670Z,5.05
2023-04-19T23:24:43.259Z,7.55
2023-04-19T23:27:16.272Z,5.80
2023-04-19T23:29:48.913Z,8.02
2023-04-19T23:32:22.013Z,7.25
2023-04-19T23:34:54.598Z,6.50
2023-04-19T23:37:27.610Z,5.72
2023-04-19T23:40:00.361Z,8.40
2023-04-19T23:42:33.389Z,6.57
2023-04-19T23:45:07.091Z,7.35
2023-04-19T23:47:40.165Z,7.60
2023-04-19T23:50:12.842Z,7.72
2023-04-19T23:52:45.861Z,7.13
2023-04-19T23:55:18.430Z,7.10
2023-04-19T23:57:51.564Z,6.80
